GCLPGCLA

Guest
Details From GCLP - Gran Canaria - Gando
To GCLA - La Palma
Flight Number -
Tags Generated
Created
Modified
Stats Distance 132 nm / 244 km
Max Altitude 0 ft / 0 m
Waypoints 2
Social Downloads 2
Likes 0
Share VATSIM

Download

Looking for another format? Having issues loading an existing format? Contact us
Advertisement - Login to hide

Notes

Generated

Route

GCLP GCLA

ID Type Via Altitude Latitude Longitude Leg Dist Tot Dist Heading (true) Name
O GCLP APT - 0 ft / 0 m 27.91818˚ -15.39035˚ - 0 nm - -
O GCLA APT - 0 ft / 0 m 28.61659˚ -17.75542˚ 131 nm 131 nm 289° / 288° -

Altitude Profile

Advertisement - Login to hide

GCLP

Details ICAO GCLP (LPA)
Name Gran Canaria
Region Canary Islands
Timezone Atlantic/Canary (UTC+0.0)
Stats Elevation 77 ft / 23 m (AMSL)
Location 27.931544° -15.385592°
Runways 2
Magnetic Variation 4.685° W

METAR

GCLP 141030Z 01017KT 9999 FEW025 20/12 Q1026 NOSIG

Decode

TAF

TAF GCLP 140800Z 1409/1509 01018KT 9999 SCT030 TX22/1414Z TN16/1506Z= TAF AMD KMUO 140828Z 1408/1508 31006KT 6000 BR OVC005 620104 QNH3038INS TEMPO 1408/1410 OVC007 BECMG 1409/1410 11006KT 0800 FZFG OVC002 620027 QNH3047INS BECMG 1416/1417 VRB06KT 3200 BR OVC007 620077 QNH3049INS BECMG 1420/1421 31006KT 8000 BR SCT007 BKN020 620204 QNH3044INS BECMG 1505/1506 11006KT 3200 BR BKN006 620063 QNH3043INS TXM03/1422Z TNM07/1413Z

Decode

Departure Runways

ID Width Length Bearing (true) Bearing (mag) Surface Threshold Offset Overrun Length
03L 148 ft / 45 m 10,203 ft / 3,110 m 21.33° 26.01° Asphalt 0 ft / 0 m 656 ft / 200 m
03R 148 ft / 45 m 10,200 ft / 3,109 m 21.32° 26.00° Asphalt 0 ft / 0 m 673 ft / 205 m
21L 148 ft / 45 m 10,200 ft / 3,109 m 201.33° 206.01° Asphalt 0 ft / 0 m 689 ft / 210 m
21R 148 ft / 45 m 10,203 ft / 3,110 m 201.33° 206.01° Asphalt 0 ft / 0 m 755 ft / 230 m

GCLA

Details ICAO GCLA (SPC)
Name La Palma
Region Canary Islands
Timezone Atlantic/Canary (UTC+0.0)
Stats Elevation 107 ft / 33 m (AMSL)
Location 28.626480° -17.755613°
Runways 1
Magnetic Variation 5.522° W

METAR

GCLA 141030Z 02009KT 340V060 9999 FEW050 21/11 Q1028

Decode

TAF

TAF GCLA 140800Z 1409/1509 02012KT 9999 SCT030 TX20/1414Z TN18/1506Z

Decode

Destination Runways

ID Width Length Bearing (true) Bearing (mag) Surface Threshold Offset Overrun Length
01 148 ft / 45 m 7,240 ft / 2,207 m 359.02° 4.54° Asphalt 0 ft / 0 m 279 ft / 85 m
19 148 ft / 45 m 7,240 ft / 2,207 m 179.02° 184.54° Asphalt 0 ft / 0 m 236 ft / 72 m

Popular Alternatives